sensor_id;sensor_type;location;lat;lon;timestamp;P1;durP1;ratioP1;P2;durP2;ratioP2
69900;SDS011;57183;50.930;5.406;2022-12-19T00:01:25;25.25;;;14.32;;
69900;SDS011;57183;50.930;5.406;2022-12-19T00:04:00;30.45;;;15.18;;
69900;SDS011;57183;50.930;5.406;2022-12-19T00:06:44;31.42;;;14.98;;
69900;SDS011;57183;50.930;5.406;2022-12-19T00:09:10;26.88;;;14.20;;
69900;SDS011;57183;50.930;5.406;2022-12-19T00:11:37;30.33;;;15.32;;
69900;SDS011;57183;50.930;5.406;2022-12-19T00:14:05;28.48;;;14.77;;
69900;SDS011;57183;50.930;5.406;2022-12-19T00:16:37;33.95;;;16.92;;
69900;SDS011;57183;50.930;5.406;2022-12-19T00:19:03;28.92;;;14.18;;
69900;SDS011;57183;50.930;5.406;2022-12-19T00:21:32;27.73;;;14.82;;
69900;SDS011;57183;50.930;5.406;2022-12-19T00:24:01;29.42;;;15.27;;
69900;SDS011;57183;50.930;5.406;2022-12-19T00:26:39;29.30;;;15.88;;
69900;SDS011;57183;50.930;5.406;2022-12-19T00:29:06;26.75;;;13.85;;
69900;SDS011;57183;50.930;5.406;2022-12-19T00:31:35;27.30;;;13.80;;
69900;SDS011;57183;50.930;5.406;2022-12-19T00:34:02;28.40;;;15.15;;
69900;SDS011;57183;50.930;5.406;2022-12-19T00:36:29;30.42;;;14.88;;
69900;SDS011;57183;50.930;5.406;2022-12-19T00:38:59;24.45;;;13.60;;
69900;SDS011;57183;50.930;5.406;2022-12-19T00:41:29;28.15;;;15.23;;
69900;SDS011;57183;50.930;5.406;2022-12-19T00:43:57;30.70;;;15.73;;
69900;SDS011;57183;50.930;5.406;2022-12-19T00:46:25;29.30;;;14.75;;
69900;SDS011;57183;50.930;5.406;2022-12-19T00:48:52;29.70;;;15.00;;
69900;SDS011;57183;50.930;5.406;2022-12-19T00:51:29;31.17;;;16.48;;
69900;SDS011;57183;50.930;5.406;2022-12-19T00:53:57;28.10;;;14.85;;
69900;SDS011;57183;50.930;5.406;2022-12-19T00:56:25;28.77;;;13.48;;
69900;SDS011;57183;50.930;5.406;2022-12-19T00:58:56;26.65;;;14.60;;
69900;SDS011;57183;50.930;5.406;2022-12-19T01:01:23;28.10;;;14.32;;
69900;SDS011;57183;50.930;5.406;2022-12-19T01:04:00;25.80;;;12.68;;
69900;SDS011;57183;50.930;5.406;2022-12-19T01:06:28;22.40;;;12.95;;
69900;SDS011;57183;50.930;5.406;2022-12-19T01:08:54;29.13;;;13.75;;
69900;SDS011;57183;50.930;5.406;2022-12-19T01:11:20;25.38;;;14.07;;
69900;SDS011;57183;50.930;5.406;2022-12-19T01:14:07;31.52;;;14.52;;
69900;SDS011;57183;50.930;5.406;2022-12-19T01:16:36;27.60;;;13.90;;
69900;SDS011;57183;50.930;5.406;2022-12-19T01:19:02;27.77;;;14.55;;
69900;SDS011;57183;50.930;5.406;2022-12-19T01:21:29;25.10;;;13.68;;
69900;SDS011;57183;50.930;5.406;2022-12-19T01:23:55;23.52;;;13.23;;
69900;SDS011;57183;50.930;5.406;2022-12-19T01:26:23;22.50;;;12.13;;
69900;SDS011;57183;50.930;5.406;2022-12-19T01:28:50;24.35;;;13.88;;
69900;SDS011;57183;50.930;5.406;2022-12-19T01:31:16;22.95;;;12.65;;
69900;SDS011;57183;50.930;5.406;2022-12-19T01:33:42;27.15;;;13.40;;
69900;SDS011;57183;50.930;5.406;2022-12-19T01:36:08;22.55;;;12.98;;
69900;SDS011;57183;50.930;5.406;2022-12-19T01:38:36;26.73;;;12.55;;
69900;SDS011;57183;50.930;5.406;2022-12-19T01:41:03;23.90;;;12.05;;
69900;SDS011;57183;50.930;5.406;2022-12-19T01:43:30;19.98;;;11.27;;
69900;SDS011;57183;50.930;5.406;2022-12-19T01:46:16;25.40;;;12.10;;
69900;SDS011;57183;50.930;5.406;2022-12-19T01:48:49;17.10;;;10.25;;
69900;SDS011;57183;50.930;5.406;2022-12-19T01:51:16;23.83;;;12.30;;
69900;SDS011;57183;50.930;5.406;2022-12-19T01:53:47;23.33;;;11.55;;
69900;SDS011;57183;50.930;5.406;2022-12-19T01:56:18;21.90;;;11.57;;
69900;SDS011;57183;50.930;5.406;2022-12-19T01:58:51;20.55;;;11.43;;
69900;SDS011;57183;50.930;5.406;2022-12-19T02:01:29;24.95;;;11.95;;
69900;SDS011;57183;50.930;5.406;2022-12-19T02:03:55;21.33;;;12.20;;
69900;SDS011;57183;50.930;5.406;2022-12-19T02:06:23;19.15;;;11.63;;
69900;SDS011;57183;50.930;5.406;2022-12-19T02:08:49;21.38;;;11.50;;
69900;SDS011;57183;50.930;5.406;2022-12-19T02:11:16;19.20;;;10.93;;
69900;SDS011;57183;50.930;5.406;2022-12-19T02:13:45;18.95;;;10.90;;
69900;SDS011;57183;50.930;5.406;2022-12-19T02:27:34;17.88;;;10.32;;
69900;SDS011;57183;50.930;5.406;2022-12-19T02:30:27;20.70;;;11.27;;
69900;SDS011;57183;50.930;5.406;2022-12-19T02:35:51;16.70;;;10.30;;
69900;SDS011;57183;50.930;5.406;2022-12-19T02:38:27;21.23;;;11.77;;
69900;SDS011;57183;50.930;5.406;2022-12-19T02:41:03;21.67;;;11.48;;
69900;SDS011;57183;50.930;5.406;2022-12-19T02:43:43;21.63;;;11.48;;
69900;SDS011;57183;50.930;5.406;2022-12-19T02:46:13;25.38;;;10.32;;
69900;SDS011;57183;50.930;5.406;2022-12-19T02:48:40;19.38;;;11.45;;
69900;SDS011;57183;50.930;5.406;2022-12-19T02:51:09;19.35;;;9.25;;
69900;SDS011;57183;50.930;5.406;2022-12-19T02:53:35;17.13;;;10.55;;
69900;SDS011;57183;50.930;5.406;2022-12-19T03:03:54;17.15;;;9.82;;
69900;SDS011;57183;50.930;5.406;2022-12-19T03:06:40;17.08;;;9.90;;
69900;SDS011;57183;50.930;5.406;2022-12-19T03:09:45;17.42;;;10.35;;
69900;SDS011;57183;50.930;5.406;2022-12-19T03:12:10;18.80;;;10.65;;
69900;SDS011;57183;50.930;5.406;2022-12-19T03:14:42;19.35;;;11.52;;
69900;SDS011;57183;50.930;5.406;2022-12-19T03:17:11;21.30;;;11.05;;
69900;SDS011;57183;50.930;5.406;2022-12-19T03:19:37;19.15;;;11.80;;
69900;SDS011;57183;50.930;5.406;2022-12-19T03:22:04;23.30;;;11.95;;
69900;SDS011;57183;50.930;5.406;2022-12-19T03:24:30;19.02;;;11.02;;
69900;SDS011;57183;50.930;5.406;2022-12-19T03:26:59;16.48;;;9.85;;
69900;SDS011;57183;50.930;5.406;2022-12-19T03:30:20;21.17;;;10.52;;
69900;SDS011;57183;50.930;5.406;2022-12-19T03:32:25;18.58;;;10.57;;
69900;SDS011;57183;50.930;5.406;2022-12-19T03:34:55;19.50;;;10.73;;
69900;SDS011;57183;50.930;5.406;2022-12-19T03:37:24;19.02;;;10.20;;
69900;SDS011;57183;50.930;5.406;2022-12-19T03:39:56;16.13;;;10.55;;
69900;SDS011;57183;50.930;5.406;2022-12-19T03:42:25;16.45;;;10.75;;
69900;SDS011;57183;50.930;5.406;2022-12-19T03:45:11;18.75;;;10.07;;
69900;SDS011;57183;50.930;5.406;2022-12-19T03:47:52;15.50;;;8.73;;
69900;SDS011;57183;50.930;5.406;2022-12-19T03:50:22;15.70;;;8.95;;
69900;SDS011;57183;50.930;5.406;2022-12-19T03:53:08;16.15;;;9.50;;
69900;SDS011;57183;50.930;5.406;2022-12-19T03:55:59;13.75;;;9.18;;
69900;SDS011;57183;50.930;5.406;2022-12-19T03:58:34;12.77;;;8.15;;
69900;SDS011;57183;50.930;5.406;2022-12-19T04:01:05;15.32;;;8.52;;
69900;SDS011;57183;50.930;5.406;2022-12-19T04:03:31;15.20;;;8.75;;
69900;SDS011;57183;50.930;5.406;2022-12-19T04:05:57;15.60;;;8.82;;
69900;SDS011;57183;50.930;5.406;2022-12-19T04:08:25;14.27;;;8.45;;
69900;SDS011;57183;50.930;5.406;2022-12-19T04:10:54;14.90;;;8.27;;
69900;SDS011;57183;50.930;5.406;2022-12-19T04:13:25;12.15;;;7.72;;
69900;SDS011;57183;50.930;5.406;2022-12-19T04:16:18;16.85;;;8.35;;
69900;SDS011;57183;50.930;5.406;2022-12-19T04:18:53;14.27;;;8.52;;
69900;SDS011;57183;50.930;5.406;2022-12-19T04:21:37;14.18;;;9.13;;
69900;SDS011;57183;50.930;5.406;2022-12-19T04:24:13;13.63;;;9.40;;
69900;SDS011;57183;50.930;5.406;2022-12-19T04:26:43;17.95;;;8.45;;
69900;SDS011;57183;50.930;5.406;2022-12-19T04:29:11;16.10;;;8.90;;
69900;SDS011;57183;50.930;5.406;2022-12-19T04:31:38;16.63;;;8.13;;
69900;SDS011;57183;50.930;5.406;2022-12-19T04:34:05;13.68;;;8.55;;
69900;SDS011;57183;50.930;5.406;2022-12-19T04:36:30;12.75;;;8.05;;
69900;SDS011;57183;50.930;5.406;2022-12-19T04:38:56;12.85;;;8.25;;
69900;SDS011;57183;50.930;5.406;2022-12-19T04:41:22;17.48;;;9.30;;
69900;SDS011;57183;50.930;5.406;2022-12-19T04:43:47;14.30;;;8.75;;
69900;SDS011;57183;50.930;5.406;2022-12-19T04:46:13;12.18;;;7.82;;
69900;SDS011;57183;50.930;5.406;2022-12-19T04:48:39;11.82;;;7.72;;
69900;SDS011;57183;50.930;5.406;2022-12-19T04:51:05;12.25;;;6.97;;
69900;SDS011;57183;50.930;5.406;2022-12-19T04:53:31;8.48;;;6.57;;
69900;SDS011;57183;50.930;5.406;2022-12-19T04:56:01;13.27;;;7.65;;
69900;SDS011;57183;50.930;5.406;2022-12-19T04:58:27;14.73;;;8.15;;
69900;SDS011;57183;50.930;5.406;2022-12-19T05:00:53;8.30;;;6.63;;
69900;SDS011;57183;50.930;5.406;2022-12-19T05:03:19;11.23;;;6.53;;
69900;SDS011;57183;50.930;5.406;2022-12-19T05:05:45;9.63;;;6.60;;
69900;SDS011;57183;50.930;5.406;2022-12-19T05:08:11;12.02;;;7.82;;
69900;SDS011;57183;50.930;5.406;2022-12-19T05:10:36;9.45;;;7.10;;
69900;SDS011;57183;50.930;5.406;2022-12-19T05:13:02;10.45;;;7.50;;
69900;SDS011;57183;50.930;5.406;2022-12-19T05:15:28;10.90;;;7.07;;
69900;SDS011;57183;50.930;5.406;2022-12-19T05:17:53;8.63;;;6.13;;
69900;SDS011;57183;50.930;5.406;2022-12-19T05:20:19;9.70;;;7.10;;
69900;SDS011;57183;50.930;5.406;2022-12-19T05:22:44;7.93;;;6.05;;
69900;SDS011;57183;50.930;5.406;2022-12-19T05:25:10;7.13;;;5.10;;
69900;SDS011;57183;50.930;5.406;2022-12-19T05:27:36;7.85;;;6.55;;
69900;SDS011;57183;50.930;5.406;2022-12-19T05:30:01;9.43;;;6.20;;
69900;SDS011;57183;50.930;5.406;2022-12-19T05:32:30;8.38;;;5.90;;
69900;SDS011;57183;50.930;5.406;2022-12-19T05:34:57;10.25;;;7.75;;
69900;SDS011;57183;50.930;5.406;2022-12-19T05:37:23;12.50;;;6.07;;
69900;SDS011;57183;50.930;5.406;2022-12-19T05:39:48;11.40;;;6.78;;
69900;SDS011;57183;50.930;5.406;2022-12-19T05:42:14;7.22;;;5.35;;
69900;SDS011;57183;50.930;5.406;2022-12-19T05:44:40;7.30;;;5.85;;
69900;SDS011;57183;50.930;5.406;2022-12-19T05:47:05;8.80;;;5.82;;
69900;SDS011;57183;50.930;5.406;2022-12-19T05:49:32;7.85;;;6.10;;
69900;SDS011;57183;50.930;5.406;2022-12-19T05:51:57;8.00;;;6.30;;
69900;SDS011;57183;50.930;5.406;2022-12-19T05:54:23;8.05;;;5.20;;
69900;SDS011;57183;50.930;5.406;2022-12-19T05:56:48;7.07;;;5.22;;
69900;SDS011;57183;50.930;5.406;2022-12-19T05:59:14;9.07;;;5.50;;
69900;SDS011;57183;50.930;5.406;2022-12-19T06:01:40;7.82;;;5.30;;
69900;SDS011;57183;50.930;5.406;2022-12-19T06:04:06;7.55;;;5.95;;
69900;SDS011;57183;50.930;5.406;2022-12-19T06:06:32;7.47;;;5.20;;
69900;SDS011;57183;50.930;5.406;2022-12-19T06:08:58;9.15;;;5.95;;
69900;SDS011;57183;50.930;5.406;2022-12-19T06:11:24;8.50;;;5.43;;
69900;SDS011;57183;50.930;5.406;2022-12-19T06:13:51;6.97;;;6.25;;
69900;SDS011;57183;50.930;5.406;2022-12-19T06:16:17;8.88;;;5.47;;
69900;SDS011;57183;50.930;5.406;2022-12-19T06:18:44;8.38;;;5.85;;
69900;SDS011;57183;50.930;5.406;2022-12-19T06:21:14;11.20;;;5.82;;
69900;SDS011;57183;50.930;5.406;2022-12-19T06:23:42;7.47;;;5.40;;
69900;SDS011;57183;50.930;5.406;2022-12-19T06:26:09;7.32;;;5.32;;
69900;SDS011;57183;50.930;5.406;2022-12-19T06:28:37;7.85;;;4.72;;
69900;SDS011;57183;50.930;5.406;2022-12-19T06:31:03;7.93;;;5.38;;
69900;SDS011;57183;50.930;5.406;2022-12-19T06:33:30;7.20;;;5.68;;
69900;SDS011;57183;50.930;5.406;2022-12-19T06:36:00;7.85;;;5.00;;
69900;SDS011;57183;50.930;5.406;2022-12-19T06:38:31;10.82;;;5.75;;
69900;SDS011;57183;50.930;5.406;2022-12-19T06:40:58;9.48;;;6.43;;
69900;SDS011;57183;50.930;5.406;2022-12-19T06:43:42;7.32;;;5.20;;
69900;SDS011;57183;50.930;5.406;2022-12-19T06:46:08;10.00;;;5.55;;
69900;SDS011;57183;50.930;5.406;2022-12-19T06:48:34;9.00;;;6.13;;
69900;SDS011;57183;50.930;5.406;2022-12-19T06:51:00;7.80;;;5.78;;
69900;SDS011;57183;50.930;5.406;2022-12-19T06:53:26;5.90;;;4.82;;
69900;SDS011;57183;50.930;5.406;2022-12-19T06:55:52;8.38;;;4.70;;
69900;SDS011;57183;50.930;5.406;2022-12-19T06:58:20;6.15;;;4.97;;
69900;SDS011;57183;50.930;5.406;2022-12-19T07:00:47;6.10;;;5.18;;
69900;SDS011;57183;50.930;5.406;2022-12-19T07:03:15;6.10;;;4.93;;
69900;SDS011;57183;50.930;5.406;2022-12-19T07:05:43;6.75;;;4.53;;
69900;SDS011;57183;50.930;5.406;2022-12-19T07:08:09;7.40;;;5.25;;
69900;SDS011;57183;50.930;5.406;2022-12-19T07:10:35;4.60;;;4.20;;
69900;SDS011;57183;50.930;5.406;2022-12-19T07:13:01;7.15;;;5.28;;
69900;SDS011;57183;50.930;5.406;2022-12-19T07:15:28;10.10;;;6.25;;
69900;SDS011;57183;50.930;5.406;2022-12-19T07:17:57;5.40;;;4.28;;
69900;SDS011;57183;50.930;5.406;2022-12-19T07:20:23;5.60;;;4.97;;
69900;SDS011;57183;50.930;5.406;2022-12-19T07:22:50;5.82;;;3.95;;
69900;SDS011;57183;50.930;5.406;2022-12-19T07:25:16;8.82;;;5.07;;
69900;SDS011;57183;50.930;5.406;2022-12-19T07:27:42;6.28;;;5.07;;
69900;SDS011;57183;50.930;5.406;2022-12-19T07:30:08;7.80;;;4.60;;
69900;SDS011;57183;50.930;5.406;2022-12-19T07:32:35;8.00;;;5.05;;
69900;SDS011;57183;50.930;5.406;2022-12-19T07:35:00;6.75;;;4.32;;
69900;SDS011;57183;50.930;5.406;2022-12-19T07:37:26;8.18;;;5.18;;
69900;SDS011;57183;50.930;5.406;2022-12-19T07:39:52;4.95;;;4.38;;
69900;SDS011;57183;50.930;5.406;2022-12-19T07:42:18;8.80;;;4.95;;
69900;SDS011;57183;50.930;5.406;2022-12-19T07:44:44;6.53;;;4.82;;
69900;SDS011;57183;50.930;5.406;2022-12-19T07:47:09;5.47;;;4.35;;
69900;SDS011;57183;50.930;5.406;2022-12-19T07:49:35;4.95;;;4.45;;
69900;SDS011;57183;50.930;5.406;2022-12-19T07:52:01;7.63;;;4.45;;
69900;SDS011;57183;50.930;5.406;2022-12-19T07:54:26;5.50;;;4.72;;
69900;SDS011;57183;50.930;5.406;2022-12-19T07:56:52;7.70;;;4.72;;
69900;SDS011;57183;50.930;5.406;2022-12-19T07:59:18;6.28;;;5.13;;
69900;SDS011;57183;50.930;5.406;2022-12-19T08:01:44;6.35;;;4.70;;
69900;SDS011;57183;50.930;5.406;2022-12-19T08:04:10;4.90;;;4.38;;
69900;SDS011;57183;50.930;5.406;2022-12-19T08:06:35;7.03;;;4.63;;
69900;SDS011;57183;50.930;5.406;2022-12-19T08:09:01;7.25;;;4.28;;
69900;SDS011;57183;50.930;5.406;2022-12-19T08:11:27;4.78;;;3.67;;
69900;SDS011;57183;50.930;5.406;2022-12-19T08:13:54;5.32;;;4.05;;
69900;SDS011;57183;50.930;5.406;2022-12-19T08:16:23;6.00;;;3.70;;
69900;SDS011;57183;50.930;5.406;2022-12-19T08:18:50;6.40;;;3.90;;
69900;SDS011;57183;50.930;5.406;2022-12-19T08:21:16;5.30;;;4.20;;
69900;SDS011;57183;50.930;5.406;2022-12-19T08:23:42;8.85;;;3.83;;
69900;SDS011;57183;50.930;5.406;2022-12-19T08:26:11;5.38;;;4.25;;
69900;SDS011;57183;50.930;5.406;2022-12-19T08:28:39;6.68;;;4.32;;
69900;SDS011;57183;50.930;5.406;2022-12-19T08:31:10;4.68;;;3.50;;
69900;SDS011;57183;50.930;5.406;2022-12-19T08:33:37;6.90;;;4.50;;
69900;SDS011;57183;50.930;5.406;2022-12-19T08:36:10;6.47;;;3.80;;
69900;SDS011;57183;50.930;5.406;2022-12-19T08:38:38;5.70;;;4.05;;
69900;SDS011;57183;50.930;5.406;2022-12-19T08:41:04;5.10;;;3.80;;
69900;SDS011;57183;50.930;5.406;2022-12-19T08:43:30;6.65;;;3.72;;
69900;SDS011;57183;50.930;5.406;2022-12-19T08:45:57;6.03;;;3.63;;
69900;SDS011;57183;50.930;5.406;2022-12-19T08:48:23;4.40;;;3.90;;
69900;SDS011;57183;50.930;5.406;2022-12-19T08:50:50;4.55;;;3.67;;
69900;SDS011;57183;50.930;5.406;2022-12-19T08:53:16;4.70;;;3.63;;
69900;SDS011;57183;50.930;5.406;2022-12-19T08:55:42;4.75;;;4.20;;
69900;SDS011;57183;50.930;5.406;2022-12-19T08:58:08;4.20;;;3.67;;
69900;SDS011;57183;50.930;5.406;2022-12-19T09:00:33;5.40;;;3.47;;
69900;SDS011;57183;50.930;5.406;2022-12-19T09:03:00;6.03;;;3.80;;
69900;SDS011;57183;50.930;5.406;2022-12-19T09:05:26;7.20;;;3.83;;
69900;SDS011;57183;50.930;5.406;2022-12-19T09:07:52;4.72;;;3.70;;
69900;SDS011;57183;50.930;5.406;2022-12-19T09:10:18;4.85;;;3.67;;
69900;SDS011;57183;50.930;5.406;2022-12-19T09:12:44;5.13;;;3.92;;
69900;SDS011;57183;50.930;5.406;2022-12-19T09:15:10;3.50;;;2.72;;
69900;SDS011;57183;50.930;5.406;2022-12-19T09:17:38;3.75;;;2.95;;
69900;SDS011;57183;50.930;5.406;2022-12-19T09:20:04;7.30;;;3.60;;
69900;SDS011;57183;50.930;5.406;2022-12-19T09:22:30;4.70;;;3.35;;
69900;SDS011;57183;50.930;5.406;2022-12-19T09:24:56;4.82;;;3.20;;
69900;SDS011;57183;50.930;5.406;2022-12-19T09:27:22;4.28;;;3.42;;
69900;SDS011;57183;50.930;5.406;2022-12-19T09:29:47;4.38;;;3.10;;
69900;SDS011;57183;50.930;5.406;2022-12-19T09:32:13;6.63;;;3.40;;
69900;SDS011;57183;50.930;5.406;2022-12-19T09:34:39;6.38;;;3.65;;
69900;SDS011;57183;50.930;5.406;2022-12-19T09:37:05;6.30;;;3.65;;
69900;SDS011;57183;50.930;5.406;2022-12-19T09:39:32;3.08;;;2.70;;
69900;SDS011;57183;50.930;5.406;2022-12-19T09:47:13;3.53;;;2.85;;
69900;SDS011;57183;50.930;5.406;2022-12-19T09:49:41;3.53;;;2.42;;
69900;SDS011;57183;50.930;5.406;2022-12-19T09:52:29;5.53;;;2.60;;
69900;SDS011;57183;50.930;5.406;2022-12-19T10:00:44;5.50;;;2.55;;
69900;SDS011;57183;50.930;5.406;2022-12-19T10:03:29;4.10;;;3.25;;
69900;SDS011;57183;50.930;5.406;2022-12-19T10:06:21;4.25;;;2.63;;
69900;SDS011;57183;50.930;5.406;2022-12-19T10:08:48;3.78;;;2.88;;
69900;SDS011;57183;50.930;5.406;2022-12-19T10:22:22;3.08;;;2.53;;
69900;SDS011;57183;50.930;5.406;2022-12-19T10:31:35;5.65;;;2.92;;
69900;SDS011;57183;50.930;5.406;2022-12-19T10:33:49;3.53;;;2.53;;
69900;SDS011;57183;50.930;5.406;2022-12-19T10:36:16;7.72;;;2.72;;
69900;SDS011;57183;50.930;5.406;2022-12-19T10:38:50;3.90;;;2.38;;
69900;SDS011;57183;50.930;5.406;2022-12-19T10:41:30;3.95;;;2.38;;
69900;SDS011;57183;50.930;5.406;2022-12-19T10:44:03;3.03;;;2.53;;
69900;SDS011;57183;50.930;5.406;2022-12-19T10:46:38;4.32;;;2.60;;
69900;SDS011;57183;50.930;5.406;2022-12-19T10:49:17;4.85;;;2.55;;
69900;SDS011;57183;50.930;5.406;2022-12-19T10:54:37;2.88;;;2.58;;
69900;SDS011;57183;50.930;5.406;2022-12-19T11:00:04;4.35;;;2.63;;
69900;SDS011;57183;50.930;5.406;2022-12-19T11:02:48;3.22;;;2.40;;
69900;SDS011;57183;50.930;5.406;2022-12-19T11:05:28;5.05;;;2.40;;
69900;SDS011;57183;50.930;5.406;2022-12-19T11:10:33;2.75;;;1.92;;
69900;SDS011;57183;50.930;5.406;2022-12-19T11:15:57;4.85;;;2.10;;
69900;SDS011;57183;50.930;5.406;2022-12-19T11:18:32;4.68;;;2.40;;
69900;SDS011;57183;50.930;5.406;2022-12-19T11:23:48;3.35;;;2.20;;
69900;SDS011;57183;50.930;5.406;2022-12-19T11:31:53;5.75;;;2.35;;
69900;SDS011;57183;50.930;5.406;2022-12-19T11:34:24;5.63;;;2.53;;
69900;SDS011;57183;50.930;5.406;2022-12-19T11:39:40;5.35;;;2.67;;
69900;SDS011;57183;50.930;5.406;2022-12-19T11:42:33;4.55;;;2.42;;
69900;SDS011;57183;50.930;5.406;2022-12-19T11:45:11;2.53;;;2.30;;
69900;SDS011;57183;50.930;5.406;2022-12-19T11:47:58;3.25;;;2.28;;
69900;SDS011;57183;50.930;5.406;2022-12-19T11:50:31;3.30;;;2.05;;
69900;SDS011;57183;50.930;5.406;2022-12-19T11:53:22;3.47;;;2.38;;
69900;SDS011;57183;50.930;5.406;2022-12-19T11:55:54;4.47;;;2.10;;
69900;SDS011;57183;50.930;5.406;2022-12-19T11:58:32;2.97;;;2.10;;
69900;SDS011;57183;50.930;5.406;2022-12-19T12:01:06;3.97;;;2.30;;
69900;SDS011;57183;50.930;5.406;2022-12-19T12:07:01;4.18;;;2.30;;
69900;SDS011;57183;50.930;5.406;2022-12-19T12:39:34;2.85;;;1.77;;
69900;SDS011;57183;50.930;5.406;2022-12-19T12:45:15;4.70;;;1.67;;
69900;SDS011;57183;50.930;5.406;2022-12-19T12:47:56;5.35;;;1.85;;
69900;SDS011;57183;50.930;5.406;2022-12-19T12:50:22;2.40;;;1.98;;
69900;SDS011;57183;50.930;5.406;2022-12-19T12:52:53;3.28;;;1.90;;
69900;SDS011;57183;50.930;5.406;2022-12-19T12:55:24;1.98;;;1.52;;
69900;SDS011;57183;50.930;5.406;2022-12-19T12:57:53;2.22;;;1.33;;
69900;SDS011;57183;50.930;5.406;2022-12-19T13:03:12;3.17;;;1.50;;
69900;SDS011;57183;50.930;5.406;2022-12-19T13:10:56;1.92;;;1.40;;
69900;SDS011;57183;50.930;5.406;2022-12-19T13:19:13;4.53;;;1.88;;
69900;SDS011;57183;50.930;5.406;2022-12-19T13:24:50;2.35;;;2.15;;
69900;SDS011;57183;50.930;5.406;2022-12-19T13:32:19;3.38;;;1.55;;
69900;SDS011;57183;50.930;5.406;2022-12-19T13:34:52;3.80;;;1.98;;
69900;SDS011;57183;50.930;5.406;2022-12-19T13:42:26;3.92;;;2.00;;
69900;SDS011;57183;50.930;5.406;2022-12-19T13:45:12;3.05;;;1.77;;
69900;SDS011;57183;50.930;5.406;2022-12-19T13:47:39;2.30;;;1.52;;
69900;SDS011;57183;50.930;5.406;2022-12-19T13:50:40;2.42;;;1.73;;
69900;SDS011;57183;50.930;5.406;2022-12-19T13:53:16;1.98;;;1.75;;
69900;SDS011;57183;50.930;5.406;2022-12-19T13:55:44;4.15;;;1.92;;
69900;SDS011;57183;50.930;5.406;2022-12-19T13:58:44;3.47;;;1.70;;
69900;SDS011;57183;50.930;5.406;2022-12-19T14:01:15;2.30;;;1.75;;
69900;SDS011;57183;50.930;5.406;2022-12-19T14:03:51;2.33;;;1.80;;
69900;SDS011;57183;50.930;5.406;2022-12-19T14:06:20;3.15;;;1.83;;
69900;SDS011;57183;50.930;5.406;2022-12-19T14:08:51;2.42;;;1.70;;
69900;SDS011;57183;50.930;5.406;2022-12-19T14:11:22;6.90;;;1.92;;
69900;SDS011;57183;50.930;5.406;2022-12-19T14:13:49;3.40;;;1.80;;
69900;SDS011;57183;50.930;5.406;2022-12-19T14:16:41;4.10;;;1.70;;
69900;SDS011;57183;50.930;5.406;2022-12-19T14:19:24;2.80;;;1.73;;
69900;SDS011;57183;50.930;5.406;2022-12-19T14:22:08;1.67;;;1.42;;
69900;SDS011;57183;50.930;5.406;2022-12-19T14:24:58;2.70;;;1.52;;
69900;SDS011;57183;50.930;5.406;2022-12-19T14:30:00;3.90;;;1.92;;
69900;SDS011;57183;50.930;5.406;2022-12-19T14:32:28;5.75;;;1.98;;
69900;SDS011;57183;50.930;5.406;2022-12-19T14:34:55;2.08;;;1.90;;
69900;SDS011;57183;50.930;5.406;2022-12-19T14:37:32;2.28;;;1.65;;
69900;SDS011;57183;50.930;5.406;2022-12-19T14:40:05;2.47;;;1.77;;
69900;SDS011;57183;50.930;5.406;2022-12-19T14:42:42;1.95;;;1.63;;
69900;SDS011;57183;50.930;5.406;2022-12-19T14:45:33;2.05;;;1.58;;
69900;SDS011;57183;50.930;5.406;2022-12-19T14:53:34;3.97;;;1.88;;
69900;SDS011;57183;50.930;5.406;2022-12-19T14:56:02;4.05;;;2.10;;
69900;SDS011;57183;50.930;5.406;2022-12-19T14:58:37;3.08;;;2.03;;
69900;SDS011;57183;50.930;5.406;2022-12-19T15:01:04;3.15;;;1.95;;
69900;SDS011;57183;50.930;5.406;2022-12-19T15:03:46;3.05;;;1.63;;
69900;SDS011;57183;50.930;5.406;2022-12-19T15:06:22;4.55;;;2.13;;
69900;SDS011;57183;50.930;5.406;2022-12-19T15:09:03;2.40;;;1.65;;
69900;SDS011;57183;50.930;5.406;2022-12-19T15:11:33;2.85;;;1.60;;
69900;SDS011;57183;50.930;5.406;2022-12-19T15:14:47;2.90;;;1.90;;
69900;SDS011;57183;50.930;5.406;2022-12-19T15:17:18;2.13;;;1.73;;
69900;SDS011;57183;50.930;5.406;2022-12-19T15:23:42;3.42;;;1.75;;
69900;SDS011;57183;50.930;5.406;2022-12-19T15:26:45;2.13;;;1.60;;
69900;SDS011;57183;50.930;5.406;2022-12-19T15:29:17;1.98;;;1.65;;
69900;SDS011;57183;50.930;5.406;2022-12-19T15:32:14;4.15;;;1.65;;
69900;SDS011;57183;50.930;5.406;2022-12-19T15:40:57;2.85;;;2.10;;
69900;SDS011;57183;50.930;5.406;2022-12-19T15:49:16;5.50;;;1.83;;
69900;SDS011;57183;50.930;5.406;2022-12-19T15:51:45;3.00;;;2.13;;
69900;SDS011;57183;50.930;5.406;2022-12-19T15:54:14;2.53;;;1.63;;
69900;SDS011;57183;50.930;5.406;2022-12-19T15:56:43;3.83;;;1.88;;
69900;SDS011;57183;50.930;5.406;2022-12-19T15:59:29;2.72;;;1.77;;
69900;SDS011;57183;50.930;5.406;2022-12-19T16:02:07;3.60;;;2.03;;
69900;SDS011;57183;50.930;5.406;2022-12-19T16:07:25;2.72;;;1.90;;
69900;SDS011;57183;50.930;5.406;2022-12-19T16:09:54;3.73;;;1.93;;
69900;SDS011;57183;50.930;5.406;2022-12-19T16:14:56;3.42;;;1.98;;
69900;SDS011;57183;50.930;5.406;2022-12-19T16:18:01;2.90;;;1.90;;
69900;SDS011;57183;50.930;5.406;2022-12-19T16:20:34;3.45;;;2.28;;
69900;SDS011;57183;50.930;5.406;2022-12-19T16:23:30;4.10;;;2.35;;
69900;SDS011;57183;50.930;5.406;2022-12-19T16:28:47;5.63;;;1.80;;
69900;SDS011;57183;50.930;5.406;2022-12-19T16:42:41;4.63;;;1.90;;
69900;SDS011;57183;50.930;5.406;2022-12-19T17:04:22;4.13;;;2.00;;
69900;SDS011;57183;50.930;5.406;2022-12-19T17:07:08;3.33;;;1.70;;
69900;SDS011;57183;50.930;5.406;2022-12-19T17:12:15;3.53;;;1.92;;
69900;SDS011;57183;50.930;5.406;2022-12-19T17:21:15;3.13;;;1.70;;
69900;SDS011;57183;50.930;5.406;2022-12-19T17:26:38;2.00;;;1.60;;
69900;SDS011;57183;50.930;5.406;2022-12-19T17:29:04;3.38;;;2.22;;
69900;SDS011;57183;50.930;5.406;2022-12-19T17:31:30;3.70;;;1.70;;
69900;SDS011;57183;50.930;5.406;2022-12-19T17:34:04;2.72;;;1.90;;
69900;SDS011;57183;50.930;5.406;2022-12-19T17:36:33;2.47;;;1.63;;
69900;SDS011;57183;50.930;5.406;2022-12-19T17:39:22;5.07;;;1.88;;
69900;SDS011;57183;50.930;5.406;2022-12-19T17:42:15;5.40;;;1.75;;
69900;SDS011;57183;50.930;5.406;2022-12-19T17:44:49;2.90;;;2.00;;
69900;SDS011;57183;50.930;5.406;2022-12-19T17:47:24;2.65;;;1.60;;
69900;SDS011;57183;50.930;5.406;2022-12-19T17:49:58;2.25;;;1.80;;
69900;SDS011;57183;50.930;5.406;2022-12-19T17:53:22;2.58;;;1.55;;
69900;SDS011;57183;50.930;5.406;2022-12-19T17:59:16;2.15;;;1.70;;
69900;SDS011;57183;50.930;5.406;2022-12-19T18:02:16;2.63;;;1.70;;
69900;SDS011;57183;50.930;5.406;2022-12-19T18:05:53;3.92;;;1.55;;
69900;SDS011;57183;50.930;5.406;2022-12-19T18:16:18;4.28;;;1.83;;
69900;SDS011;57183;50.930;5.406;2022-12-19T18:19:22;3.90;;;2.00;;
69900;SDS011;57183;50.930;5.406;2022-12-19T18:21:55;3.05;;;2.10;;
69900;SDS011;57183;50.930;5.406;2022-12-19T18:24:45;3.22;;;1.60;;
69900;SDS011;57183;50.930;5.406;2022-12-19T18:27:33;3.83;;;1.65;;
69900;SDS011;57183;50.930;5.406;2022-12-19T18:35:55;2.00;;;1.75;;
69900;SDS011;57183;50.930;5.406;2022-12-19T18:44:50;5.40;;;2.08;;
69900;SDS011;57183;50.930;5.406;2022-12-19T18:47:43;2.47;;;1.83;;
69900;SDS011;57183;50.930;5.406;2022-12-19T18:52:57;3.13;;;1.55;;
69900;SDS011;57183;50.930;5.406;2022-12-19T18:55:43;2.97;;;2.35;;
69900;SDS011;57183;50.930;5.406;2022-12-19T18:58:16;2.38;;;1.65;;
69900;SDS011;57183;50.930;5.406;2022-12-19T19:00:45;4.32;;;3.00;;
69900;SDS011;57183;50.930;5.406;2022-12-19T19:06:18;5.25;;;1.88;;
69900;SDS011;57183;50.930;5.406;2022-12-19T19:11:17;5.07;;;1.70;;